Time;durP1;ratioP1;P1;durP2;ratioP2;P2;SDS_P1;SDS_P2;PMS_P1;PMS_P2;Temp;Humidity;BMP_temperature;BMP_pressure;BME280_temperature;BME280_humidity;BME280_pressure;Samples;Min_cycle;Max_cycle;Signal;HPM_P1;HPM_P2
2023/06/21 00:00:15;;;;;;;13.90;11.17;;;21.20;99.90;;;;;;4943905;28;20274;-79
2023/06/21 00:02:42;;;;;;;11.52;10.38;;;21.10;99.90;;;;;;4945132;28;20213;-79
2023/06/21 00:05:07;;;;;;;11.23;9.82;;;21.10;99.90;;;;;;4941785;28;20185;-79
2023/06/21 00:07:33;;;;;;;11.20;10.10;;;21.30;99.90;;;;;;4943455;28;20585;-79
2023/06/21 00:09:59;;;;;;;10.83;9.77;;;21.40;99.90;;;;;;4945459;28;20269;-79
2023/06/21 00:12:28;;;;;;;11.83;10.30;;;21.50;99.90;;;;;;4943853;28;20255;-78
2023/06/21 00:14:54;;;;;;;9.90;8.48;;;21.50;99.90;;;;;;4943157;28;20285;-78
2023/06/21 00:17:19;;;;;;;10.90;10.00;;;21.70;99.90;;;;;;4943034;28;20623;-79
2023/06/21 00:19:47;;;;;;;11.47;9.10;;;21.80;99.90;;;;;;4942129;28;20984;-79
2023/06/21 00:22:14;;;;;;;11.10;10.03;;;22.20;99.90;;;;;;4945134;28;20658;-79
2023/06/21 00:24:39;;;;;;;11.50;10.50;;;22.10;99.90;;;;;;4948832;28;20957;-79
2023/06/21 00:27:05;;;;;;;11.13;10.03;;;22.80;99.90;;;;;;4945281;28;20467;-79
2023/06/21 00:29:31;;;;;;;10.17;9.17;;;22.30;99.90;;;;;;4945462;28;20197;-79
2023/06/21 00:31:58;;;;;;;12.23;11.00;;;22.40;99.90;;;;;;4950308;28;20193;-79
2023/06/21 00:34:23;;;;;;;10.88;9.90;;;22.60;99.90;;;;;;4946599;28;20440;-79
2023/06/21 00:36:49;;;;;;;11.60;10.40;;;22.30;99.90;;;;;;4946643;28;20224;-79
2023/06/21 00:39:14;;;;;;;11.80;10.70;;;21.60;99.90;;;;;;4939985;28;20584;-79
2023/06/21 00:41:40;;;;;;;11.80;10.70;;;21.50;99.90;;;;;;4940655;28;21840;-78
2023/06/21 00:44:07;;;;;;;12.47;10.63;;;21.40;99.90;;;;;;4941636;28;20345;-79
2023/06/21 00:46:34;;;;;;;11.35;10.45;;;21.60;99.90;;;;;;4936736;28;20184;-79
2023/06/21 00:48:59;;;;;;;11.10;10.10;;;21.20;99.90;;;;;;4944029;28;20567;-79
2023/06/21 00:51:25;;;;;;;12.57;11.40;;;20.90;99.90;;;;;;4945539;28;20185;-79
2023/06/21 00:53:51;;;;;;;11.37;10.40;;;21.30;99.90;;;;;;4942836;28;20197;-79
2023/06/21 00:56:16;;;;;;;11.10;10.20;;;21.20;99.90;;;;;;4947816;28;20443;-79
2023/06/21 00:58:43;;;;;;;11.63;10.67;;;21.10;99.90;;;;;;4942997;28;20272;-79
2023/06/21 01:01:08;;;;;;;11.55;10.43;;;21.90;99.90;;;;;;4938857;28;20557;-79
2023/06/21 01:03:35;;;;;;;11.53;10.63;;;20.60;99.90;;;;;;4944636;28;20200;-79
2023/06/21 01:06:26;;;;;;;12.07;10.88;;;20.60;99.90;;;;;;4943951;28;20190;-79
2023/06/21 01:09:29;;;;;;;11.77;10.77;;;20.60;99.90;;;;;;4946188;28;20333;-79
2023/06/21 01:12:04;;;;;;;11.50;10.45;;;20.60;99.90;;;;;;4944999;28;20232;-78
2023/06/21 01:14:54;;;;;;;12.30;11.02;;;20.70;99.90;;;;;;4964731;28;20280;-79
2023/06/21 01:17:20;;;;;;;12.13;11.02;;;20.50;99.90;;;;;;4943732;28;20572;-78
2023/06/21 01:19:55;;;;;;;14.75;10.88;;;20.70;99.90;;;;;;4937881;28;20189;-79
2023/06/21 01:22:21;;;;;;;11.20;10.20;;;20.50;99.90;;;;;;4939548;28;20209;-79
2023/06/21 01:25:29;;;;;;;11.77;10.57;;;20.50;99.90;;;;;;4937148;28;20235;-79
2023/06/21 01:28:31;;;;;;;11.57;10.55;;;20.40;99.90;;;;;;4919963;28;20284;-79
2023/06/21 01:30:58;;;;;;;11.90;10.80;;;20.40;99.90;;;;;;4949040;28;20180;-79
2023/06/21 01:33:26;;;;;;;11.40;10.40;;;20.60;99.90;;;;;;4946938;28;20291;-79
2023/06/21 01:35:54;;;;;;;10.70;9.85;;;20.40;99.90;;;;;;4942989;28;20204;-79
2023/06/21 01:38:21;;;;;;;11.85;10.70;;;20.30;99.90;;;;;;4935083;28;20219;-79
2023/06/21 01:40:47;;;;;;;12.15;10.95;;;20.60;99.90;;;;;;4938904;28;20391;-79
2023/06/21 01:43:14;;;;;;;11.70;10.60;;;20.50;99.90;;;;;;4940844;28;20211;-79
2023/06/21 01:45:40;;;;;;;11.65;10.55;;;20.30;99.90;;;;;;4947274;28;20276;-79
2023/06/21 01:48:07;;;;;;;12.55;11.25;;;20.20;99.90;;;;;;4946715;28;20205;-79
2023/06/21 01:50:35;;;;;;;11.65;10.55;;;20.10;99.90;;;;;;4944793;28;20816;-79
2023/06/21 01:53:01;;;;;;;12.65;11.48;;;20.30;99.90;;;;;;4940724;28;20299;-78
2023/06/21 01:55:28;;;;;;;11.27;10.27;;;19.60;99.90;;;;;;4937337;28;20197;-79
2023/06/21 01:57:56;;;;;;;12.73;11.45;;;20.00;99.90;;;;;;4944437;28;20216;-79
2023/06/21 02:00:22;;;;;;;11.25;10.32;;;20.50;99.90;;;;;;4938850;28;20808;-78
2023/06/21 02:02:52;;;;;;;12.60;11.57;;;20.20;99.90;;;;;;4946391;28;20324;-79
2023/06/21 02:05:19;;;;;;;11.88;10.57;;;20.10;99.90;;;;;;4939680;28;20189;-79
2023/06/21 02:07:46;;;;;;;12.00;10.95;;;19.80;99.90;;;;;;4945805;28;20685;-79
2023/06/21 02:10:14;;;;;;;13.43;11.98;;;20.50;99.90;;;;;;4944435;28;20231;-78
2023/06/21 02:12:41;;;;;;;11.98;11.00;;;20.30;99.90;;;;;;4942473;28;20218;-79
2023/06/21 02:15:10;;;;;;;12.93;11.63;;;20.10;99.90;;;;;;4968193;28;20216;-79
2023/06/21 02:17:36;;;;;;;12.60;11.50;;;19.90;99.90;;;;;;4944894;28;20686;-79
2023/06/21 02:20:03;;;;;;;12.03;10.93;;;19.80;99.90;;;;;;4965034;28;20240;-79
2023/06/21 02:22:28;;;;;;;12.40;11.20;;;19.90;99.90;;;;;;4940941;28;20999;-79
2023/06/21 02:24:54;;;;;;;11.27;10.13;;;19.90;99.90;;;;;;5022538;23;20169;-65
2023/06/21 02:27:19;;;;;;;11.53;10.40;;;19.90;99.90;;;;;;4974732;28;21125;-66
2023/06/21 02:29:45;;;;;;;12.00;11.00;;;19.90;99.90;;;;;;4978890;28;20193;-65
2023/06/21 02:32:11;;;;;;;11.77;10.80;;;19.90;99.90;;;;;;4964914;28;20211;-64
2023/06/21 02:34:37;;;;;;;11.90;10.43;;;20.00;99.90;;;;;;4961726;28;20283;-65
2023/06/21 02:37:03;;;;;;;12.18;10.98;;;20.20;99.90;;;;;;4963764;28;20693;-66
2023/06/21 02:39:28;;;;;;;12.13;11.03;;;20.20;99.90;;;;;;4956696;28;20276;-66
2023/06/21 02:41:54;;;;;;;12.03;10.93;;;20.00;99.90;;;;;;4960661;28;20597;-66
2023/06/21 02:44:20;;;;;;;11.70;10.55;;;19.90;99.90;;;;;;4965723;28;20185;-66
2023/06/21 02:46:46;;;;;;;11.63;10.70;;;19.90;99.90;;;;;;4962125;28;20195;-66
2023/06/21 02:49:11;;;;;;;11.23;10.13;;;19.80;99.90;;;;;;4962913;28;20204;-65
2023/06/21 02:51:37;;;;;;;11.70;10.60;;;19.70;99.90;;;;;;4965747;28;20645;-65
2023/06/21 02:54:03;;;;;;;11.03;10.00;;;19.80;99.90;;;;;;4955208;28;20188;-65
2023/06/21 02:56:32;;;;;;;12.75;11.45;;;19.90;99.90;;;;;;4961177;28;20191;-66
2023/06/21 02:58:58;;;;;;;11.88;10.88;;;19.80;99.90;;;;;;4953884;28;20560;-65
2023/06/21 03:01:23;;;;;;;11.50;10.40;;;19.70;99.90;;;;;;4964333;28;20204;-66
2023/06/21 03:03:49;;;;;;;12.83;11.43;;;19.70;99.90;;;;;;4965016;28;20185;-66
2023/06/21 03:06:15;;;;;;;14.00;12.80;;;19.70;99.90;;;;;;4963532;28;20221;-66
2023/06/21 03:08:41;;;;;;;11.70;10.63;;;19.80;99.90;;;;;;4958346;28;20703;-66
2023/06/21 03:11:08;;;;;;;12.60;11.47;;;19.70;99.90;;;;;;4962916;28;20464;-66
2023/06/21 03:13:37;;;;;;;12.73;11.70;;;19.70;99.90;;;;;;4960620;28;20181;-66
2023/06/21 03:16:06;;;;;;;12.07;10.98;;;19.90;99.90;;;;;;4960836;28;20304;-66
2023/06/21 03:18:32;;;;;;;11.45;10.48;;;19.80;99.90;;;;;;4957323;28;20299;-66
2023/06/21 03:21:00;;;;;;;11.60;10.60;;;19.80;99.90;;;;;;4961563;28;20681;-65
2023/06/21 03:23:26;;;;;;;12.30;11.20;;;19.70;99.90;;;;;;4963571;28;20896;-65
2023/06/21 03:25:52;;;;;;;11.85;10.80;;;19.60;99.90;;;;;;4966269;28;20403;-65
2023/06/21 03:28:18;;;;;;;12.87;11.70;;;19.70;99.90;;;;;;4971426;28;20192;-65
2023/06/21 03:30:43;;;;;;;13.40;11.97;;;19.70;99.90;;;;;;4965739;28;20238;-65
2023/06/21 03:33:10;;;;;;;13.10;11.80;;;19.80;99.90;;;;;;4962911;28;20580;-65
2023/06/21 03:35:36;;;;;;;11.85;10.75;;;19.80;99.90;;;;;;4963868;28;20184;-65
2023/06/21 03:38:02;;;;;;;11.43;10.43;;;20.00;99.90;;;;;;4961915;28;20212;-65
2023/06/21 03:40:27;;;;;;;12.27;10.80;;;20.10;99.90;;;;;;4965819;28;20180;-65
2023/06/21 03:42:53;;;;;;;11.73;10.63;;;20.00;99.90;;;;;;4967714;28;20538;-65
2023/06/21 03:45:19;;;;;;;11.57;10.57;;;20.00;99.90;;;;;;4964454;28;20185;-65
2023/06/21 03:47:44;;;;;;;12.03;10.97;;;19.90;99.90;;;;;;4964492;28;20200;-65
2023/06/21 03:50:11;;;;;;;10.63;9.80;;;19.80;99.90;;;;;;4961684;28;20200;-65
2023/06/21 03:52:37;;;;;;;11.73;10.63;;;19.80;99.90;;;;;;4960463;28;20282;-65
2023/06/21 03:55:05;;;;;;;10.73;9.73;;;19.90;99.90;;;;;;4959483;28;20220;-65
2023/06/21 03:57:30;;;;;;;14.57;11.10;;;20.20;99.90;;;;;;4969081;28;20478;-65
2023/06/21 03:59:56;;;;;;;11.83;9.30;;;20.70;99.90;;;;;;4965865;28;20188;-65
2023/06/21 04:02:21;;;;;;;9.00;8.20;;;20.80;99.90;;;;;;4961493;28;20208;-65
2023/06/21 04:04:48;;;;;;;9.73;8.73;;;20.80;99.90;;;;;;4963553;28;20241;-65
2023/06/21 04:07:17;;;;;;;11.50;8.80;;;20.90;99.90;;;;;;4964788;28;20247;-65
2023/06/21 04:09:42;;;;;;;10.13;9.27;;;21.00;99.90;;;;;;4961595;28;20192;-66
2023/06/21 04:12:08;;;;;;;12.33;8.47;;;21.30;99.90;;;;;;4963407;28;20200;-66
2023/06/21 04:14:34;;;;;;;8.80;7.95;;;21.50;99.90;;;;;;4981151;28;20184;-66
2023/06/21 04:17:00;;;;;;;10.00;9.07;;;21.70;99.90;;;;;;4962570;28;20727;-66
2023/06/21 04:19:25;;;;;;;9.40;8.50;;;21.80;99.90;;;;;;4955187;28;20239;-66
2023/06/21 04:21:51;;;;;;;9.00;8.30;;;22.00;99.90;;;;;;4960220;28;20209;-66
2023/06/21 04:24:16;;;;;;;9.00;8.20;;;22.10;99.90;;;;;;4962841;28;20228;-66
2023/06/21 04:26:42;;;;;;;9.23;8.30;;;22.10;99.90;;;;;;4965154;28;20200;-66
2023/06/21 04:29:08;;;;;;;10.30;9.30;;;22.20;99.90;;;;;;4963183;28;20196;-67
2023/06/21 04:31:37;;;;;;;9.90;9.10;;;22.10;99.90;;;;;;4964212;28;20219;-67
2023/06/21 04:34:04;;;;;;;10.37;9.37;;;22.30;99.90;;;;;;4959219;28;20934;-67
2023/06/21 04:36:32;;;;;;;8.40;7.60;;;22.20;99.90;;;;;;4959636;28;20439;-65
2023/06/21 04:38:58;;;;;;;9.67;8.97;;;22.20;99.90;;;;;;4960645;28;20551;-65
2023/06/21 04:41:24;;;;;;;8.43;7.63;;;22.30;99.90;;;;;;4965045;28;20546;-66
2023/06/21 04:43:50;;;;;;;7.70;7.10;;;22.40;99.90;;;;;;4962595;28;20997;-64
2023/06/21 04:46:17;;;;;;;9.70;8.80;;;22.70;99.90;;;;;;4962951;28;20195;-66
2023/06/21 04:48:46;;;;;;;10.50;8.63;;;23.00;99.90;;;;;;4959329;28;20542;-67
2023/06/21 04:51:15;;;;;;;12.23;10.93;;;22.80;99.90;;;;;;4965269;28;20498;-65
2023/06/21 04:53:44;;;;;;;11.90;10.80;;;22.70;99.90;;;;;;4958590;28;20866;-64
2023/06/21 04:56:13;;;;;;;8.87;8.13;;;22.20;99.90;;;;;;4966091;28;20457;-64
2023/06/21 04:58:39;;;;;;;11.27;10.20;;;22.30;99.90;;;;;;4959398;28;21058;-65
2023/06/21 05:01:07;;;;;;;10.97;10.13;;;22.50;99.90;;;;;;4963670;28;20570;-65
2023/06/21 05:03:32;;;;;;;11.13;10.13;;;22.30;99.90;;;;;;4958080;28;20595;-67
2023/06/21 05:06:01;;;;;;;12.07;10.83;;;22.40;99.90;;;;;;4960821;28;20480;-67
2023/06/21 05:08:27;;;;;;;11.48;10.38;;;22.20;99.90;;;;;;4958670;28;20564;-66
2023/06/21 05:10:53;;;;;;;13.30;12.00;;;21.80;99.90;;;;;;4958413;28;20216;-68
2023/06/21 05:13:19;;;;;;;12.00;11.00;;;21.70;99.90;;;;;;4962837;28;20191;-73
2023/06/21 05:15:44;;;;;;;12.13;11.07;;;21.80;99.90;;;;;;4967336;28;20721;-76
2023/06/21 05:18:10;;;;;;;12.43;11.33;;;21.70;99.90;;;;;;4961696;28;20563;-76
2023/06/21 05:20:35;;;;;;;12.20;11.10;;;21.70;99.90;;;;;;4961169;28;20176;-73
2023/06/21 05:23:01;;;;;;;11.70;10.80;;;21.80;99.90;;;;;;4955683;28;20240;-72
2023/06/21 05:25:27;;;;;;;14.90;13.50;;;21.80;99.90;;;;;;4958432;28;20230;-74
2023/06/21 05:27:53;;;;;;;12.63;11.53;;;22.00;99.90;;;;;;4953453;28;20181;-71
2023/06/21 05:30:18;;;;;;;12.43;11.43;;;21.90;99.90;;;;;;4959050;28;20187;-73
2023/06/21 05:32:44;;;;;;;14.37;12.17;;;21.90;99.90;;;;;;4959834;28;20906;-74
2023/06/21 05:35:10;;;;;;;12.57;11.20;;;21.90;99.90;;;;;;4961923;28;20244;-75
2023/06/21 05:37:36;;;;;;;11.97;10.97;;;22.00;99.90;;;;;;4962766;28;20461;-75
2023/06/21 05:40:04;;;;;;;12.70;11.60;;;22.20;99.90;;;;;;4960908;28;20191;-68
2023/06/21 05:42:29;;;;;;;11.80;10.70;;;22.20;99.90;;;;;;4957447;28;20558;-61
2023/06/21 05:44:55;;;;;;;12.00;10.37;;;22.40;99.90;;;;;;4962021;28;20519;-63
2023/06/21 05:47:21;;;;;;;12.60;11.53;;;22.50;99.90;;;;;;4959441;28;20191;-70
2023/06/21 05:49:48;;;;;;;11.90;10.70;;;22.50;99.90;;;;;;4961325;28;20192;-71
2023/06/21 05:52:15;;;;;;;12.00;10.80;;;22.60;99.90;;;;;;4958335;28;20212;-71
2023/06/21 05:54:43;;;;;;;12.47;11.27;;;23.10;99.90;;;;;;4962379;28;20443;-71
2023/06/21 05:57:09;;;;;;;12.20;11.00;;;22.70;99.90;;;;;;4965139;28;20507;-70
2023/06/21 05:59:35;;;;;;;11.40;10.30;;;22.90;99.90;;;;;;4962840;28;20436;-68
2023/06/21 06:02:00;;;;;;;14.77;13.47;;;23.00;99.90;;;;;;4959345;28;20473;-69
2023/06/21 06:04:26;;;;;;;14.73;13.40;;;23.10;99.90;;;;;;4959889;28;20443;-70
2023/06/21 06:06:52;;;;;;;11.00;9.87;;;23.20;99.90;;;;;;4960143;28;20652;-68
2023/06/21 06:09:18;;;;;;;12.37;11.17;;;23.00;99.90;;;;;;4961678;28;20194;-67
2023/06/21 06:11:43;;;;;;;9.73;8.73;;;23.00;99.90;;;;;;4964165;28;20215;-70
2023/06/21 06:14:13;;;;;;;9.20;8.27;;;23.20;99.90;;;;;;4960505;28;20193;-69
2023/06/21 06:16:39;;;;;;;9.60;8.70;;;23.30;99.90;;;;;;4958289;28;20193;-68
2023/06/21 06:19:05;;;;;;;10.87;9.77;;;23.40;99.90;;;;;;4966168;28;20448;-68
2023/06/21 06:21:30;;;;;;;9.80;8.97;;;23.70;99.90;;;;;;4962511;28;20468;-70
2023/06/21 06:23:56;;;;;;;10.87;9.77;;;23.70;99.90;;;;;;4958028;28;21126;-70
2023/06/21 06:26:26;;;;;;;10.77;9.77;;;23.50;99.90;;;;;;4956725;28;20668;-71
2023/06/21 06:28:53;;;;;;;9.47;8.63;;;23.70;99.90;;;;;;4962798;28;20214;-71
2023/06/21 06:31:24;;;;;;;10.20;9.30;;;24.20;99.90;;;;;;4959085;28;20467;-73
2023/06/21 06:33:49;;;;;;;11.17;10.27;;;24.00;99.90;;;;;;4963359;28;20456;-71
2023/06/21 06:36:15;;;;;;;10.67;9.63;;;23.90;99.90;;;;;;4959033;28;20451;-72
2023/06/21 06:38:41;;;;;;;9.60;8.70;;;23.90;99.90;;;;;;4956190;28;20217;-70
2023/06/21 06:41:07;;;;;;;8.83;8.03;;;24.00;99.90;;;;;;4958786;28;20685;-73
2023/06/21 06:43:33;;;;;;;8.73;7.97;;;24.30;99.90;;;;;;4963909;28;20439;-74
2023/06/21 06:45:59;;;;;;;12.00;9.63;;;24.70;99.90;;;;;;4957289;28;20817;-72
2023/06/21 06:48:26;;;;;;;9.93;9.03;;;24.70;99.90;;;;;;4955117;28;20437;-73
2023/06/21 06:50:52;;;;;;;10.53;9.63;;;24.80;99.90;;;;;;4967164;28;20208;-73
2023/06/21 06:53:18;;;;;;;10.90;9.80;;;25.00;99.90;;;;;;4967188;28;20589;-72
2023/06/21 06:55:44;;;;;;;10.67;9.67;;;25.20;99.90;;;;;;4964290;28;20189;-73
2023/06/21 06:58:09;;;;;;;10.70;9.70;;;25.40;99.90;;;;;;4966876;28;20516;-70
2023/06/21 07:00:35;;;;;;;9.53;8.70;;;25.60;99.90;;;;;;4962620;28;20186;-73
2023/06/21 07:03:01;;;;;;;9.93;9.03;;;25.60;99.90;;;;;;4959683;28;20196;-74
2023/06/21 07:05:27;;;;;;;13.53;10.60;;;26.20;99.90;;;;;;4965104;28;20195;-76
2023/06/21 07:07:53;;;;;;;11.13;9.43;;;26.50;99.90;;;;;;4967571;28;20631;-76
2023/06/21 07:10:19;;;;;;;10.80;9.80;;;27.00;99.40;;;;;;4967009;28;20555;-75
2023/06/21 07:12:45;;;;;;;9.50;8.70;;;27.00;98.90;;;;;;4961858;28;20474;-76
2023/06/21 07:15:11;;;;;;;9.87;8.87;;;27.40;98.50;;;;;;4962395;28;22324;-70
2023/06/21 07:17:36;;;;;;;9.90;9.00;;;28.10;97.30;;;;;;4962646;28;20220;-70
2023/06/21 07:20:05;;;;;;;8.57;7.77;;;29.10;95.50;;;;;;4967511;28;20262;-70
2023/06/21 07:22:32;;;;;;;9.93;9.07;;;30.20;93.10;;;;;;4964524;28;20217;-72
2023/06/21 07:24:57;;;;;;;9.37;8.50;;;31.80;90.30;;;;;;4925589;28;1237376;-73
2023/06/21 07:27:25;;;;;;;8.23;7.40;;;32.80;84.50;;;;;;4965580;28;20454;-70
2023/06/21 07:29:51;;;;;;;9.93;8.90;;;33.50;81.80;;;;;;4959580;28;20467;-70
2023/06/21 07:32:17;;;;;;;8.83;8.03;;;35.50;75.20;;;;;;4957384;28;21070;-71
2023/06/21 07:34:42;;;;;;;8.93;8.00;;;36.00;69.50;;;;;;4963012;28;20184;-71
2023/06/21 07:37:08;;;;;;;9.10;8.40;;;34.50;70.30;;;;;;4964611;28;20235;-76
2023/06/21 07:39:34;;;;;;;9.33;8.53;;;33.50;73.50;;;;;;4958711;28;20188;-73
2023/06/21 07:42:04;;;;;;;8.40;7.60;;;32.70;76.30;;;;;;4966466;28;20204;-75
2023/06/21 07:44:30;;;;;;;8.60;7.83;;;32.20;76.00;;;;;;4955522;28;20187;-71
2023/06/21 07:46:56;;;;;;;7.50;6.90;;;31.60;78.50;;;;;;4967735;28;20440;-71
2023/06/21 07:49:21;;;;;;;10.00;7.60;;;31.10;79.40;;;;;;4967714;28;20867;-73
2023/06/21 07:51:47;;;;;;;7.87;7.27;;;30.20;81.60;;;;;;4965718;28;20694;-76
2023/06/21 07:54:13;;;;;;;8.47;7.67;;;29.20;85.60;;;;;;4963721;28;20683;-72
2023/06/21 07:56:38;;;;;;;8.50;7.70;;;28.80;88.70;;;;;;4964567;28;20187;-78
2023/06/21 07:59:04;;;;;;;8.30;7.60;;;28.50;90.50;;;;;;4964662;28;20473;-76
2023/06/21 08:01:30;;;;;;;8.97;8.13;;;28.20;91.10;;;;;;4961250;28;20211;-70
2023/06/21 08:03:57;;;;;;;8.40;6.30;;;27.90;92.50;;;;;;4963553;28;20229;-70
2023/06/21 08:06:23;;;;;;;6.63;6.03;;;27.50;91.50;;;;;;4965506;28;20185;-71
2023/06/21 08:08:49;;;;;;;6.50;5.90;;;27.40;91.80;;;;;;4961538;28;20870;-73
2023/06/21 08:11:14;;;;;;;7.20;6.60;;;27.30;92.00;;;;;;4959786;28;20214;-70
2023/06/21 08:13:40;;;;;;;6.70;6.10;;;27.20;92.80;;;;;;4969142;28;20188;-72
2023/06/21 08:16:05;;;;;;;6.60;6.00;;;26.90;93.40;;;;;;4965736;28;20197;-72
2023/06/21 08:18:31;;;;;;;8.47;7.03;;;26.80;94.00;;;;;;4969017;28;20224;-77
2023/06/21 08:20:57;;;;;;;7.43;6.37;;;26.60;94.50;;;;;;4962660;28;20735;-72
2023/06/21 08:23:22;;;;;;;7.10;6.50;;;26.60;94.80;;;;;;4963505;28;20207;-72
2023/06/21 08:25:48;;;;;;;7.87;7.27;;;26.60;95.40;;;;;;4961326;28;20677;-74
2023/06/21 08:28:14;;;;;;;7.67;6.83;;;26.40;95.60;;;;;;4969128;28;20198;-76
2023/06/21 08:30:39;;;;;;;6.60;5.87;;;26.10;95.70;;;;;;4962766;28;20450;-74
2023/06/21 08:33:05;;;;;;;7.00;6.40;;;26.10;96.00;;;;;;4962978;28;20211;-72
2023/06/21 08:35:31;;;;;;;8.40;7.23;;;26.10;96.70;;;;;;4960808;28;20604;-76
2023/06/21 08:37:59;;;;;;;7.30;6.33;;;26.00;96.40;;;;;;4962784;28;20216;-76
2023/06/21 08:40:27;;;;;;;7.90;7.27;;;25.90;96.20;;;;;;4962515;28;20195;-73
2023/06/21 08:42:53;;;;;;;9.00;8.10;;;25.70;96.60;;;;;;4961808;28;20474;-75
2023/06/21 08:45:20;;;;;;;6.50;5.90;;;25.70;96.80;;;;;;4960222;28;20578;-74
2023/06/21 08:47:47;;;;;;;6.80;6.10;;;25.60;96.60;;;;;;4959795;28;21253;-83
2023/06/21 08:50:16;;;;;;;6.60;5.90;;;25.50;97.10;;;;;;4962913;28;20480;-78
2023/06/21 08:52:44;;;;;;;10.57;7.00;;;25.50;97.00;;;;;;4963601;28;20530;-75
2023/06/21 08:55:11;;;;;;;5.90;5.30;;;25.30;98.00;;;;;;4963534;28;20553;-74
2023/06/21 08:57:52;;;;;;;12.80;6.67;;;25.40;99.10;;;;;;4960653;28;20576;-73
2023/06/21 09:00:33;;;;;;;7.43;5.67;;;25.20;99.80;;;;;;4961471;28;20449;-75
2023/06/21 09:03:05;;;;;;;7.03;6.40;;;25.20;99.90;;;;;;4960517;28;20516;-73
2023/06/21 09:05:55;;;;;;;7.07;6.43;;;25.00;99.90;;;;;;4955400;28;20447;-74
2023/06/21 09:08:21;;;;;;;7.43;6.70;;;24.90;99.90;;;;;;4963039;28;20446;-74
2023/06/21 09:10:50;;;;;;;7.80;6.60;;;24.90;99.90;;;;;;4966163;28;20514;-71
2023/06/21 09:13:17;;;;;;;7.80;6.27;;;24.80;99.90;;;;;;4960864;28;20187;-71
2023/06/21 09:15:45;;;;;;;6.93;6.23;;;24.70;99.90;;;;;;4956703;28;20946;-69
2023/06/21 09:18:11;;;;;;;8.33;7.53;;;24.50;99.90;;;;;;4961500;28;20610;-72
2023/06/21 09:20:38;;;;;;;8.23;7.23;;;24.20;99.90;;;;;;4964025;28;20543;-71
2023/06/21 09:23:03;;;;;;;7.90;6.90;;;24.20;99.90;;;;;;4960059;28;20185;-72
2023/06/21 09:25:30;;;;;;;8.83;7.57;;;23.60;99.90;;;;;;4957914;28;20460;-71
2023/06/21 09:27:55;;;;;;;8.70;7.30;;;23.80;99.90;;;;;;4955992;28;20182;-78
2023/06/21 09:30:22;;;;;;;10.13;8.53;;;23.70;99.90;;;;;;4959057;28;20539;-69
2023/06/21 09:32:49;;;;;;;9.37;7.40;;;23.50;99.90;;;;;;4959480;28;20464;-71
2023/06/21 09:35:15;;;;;;;14.13;8.33;;;23.40;99.90;;;;;;4966689;28;20519;-70
2023/06/21 09:37:40;;;;;;;9.07;7.30;;;23.20;99.90;;;;;;4957238;28;20575;-73
2023/06/21 09:40:07;;;;;;;8.57;7.23;;;22.90;99.90;;;;;;4958704;28;20199;-72
2023/06/21 09:42:50;;;;;;;6.20;5.60;;;22.80;99.90;;;;;;4963121;28;20466;-71
2023/06/21 09:45:20;;;;;;;6.97;5.97;;;22.60;99.90;;;;;;4956179;28;20440;-69
2023/06/21 09:47:46;;;;;;;9.50;7.50;;;22.80;99.90;;;;;;4961928;28;20526;-67
2023/06/21 09:50:12;;;;;;;10.10;8.07;;;22.90;99.90;;;;;;4963054;28;20483;-65
2023/06/21 09:52:43;;;;;;;9.87;8.97;;;22.90;99.90;;;;;;4961283;28;20470;-64
2023/06/21 09:55:12;;;;;;;8.07;7.30;;;22.80;99.90;;;;;;4960876;28;20459;-65
2023/06/21 09:57:38;;;;;;;7.10;6.50;;;22.80;99.90;;;;;;4963835;28;20471;-65
2023/06/21 10:00:05;;;;;;;6.70;6.10;;;22.80;99.90;;;;;;4961076;28;20447;-64
2023/06/21 10:02:38;;;;;;;9.10;8.17;;;23.00;99.90;;;;;;4960963;28;20259;-64
2023/06/21 10:05:05;;;;;;;15.77;10.50;;;23.00;99.90;;;;;;4963984;28;20447;-64
2023/06/21 10:07:30;;;;;;;10.83;9.53;;;23.10;99.90;;;;;;4959901;28;20479;-64
2023/06/21 10:09:56;;;;;;;14.10;11.07;;;22.80;99.90;;;;;;4963835;28;20462;-63
2023/06/21 10:12:22;;;;;;;12.10;10.90;;;22.50;99.90;;;;;;4965022;28;20565;-65
2023/06/21 10:14:50;;;;;;;12.63;11.47;;;22.30;99.90;;;;;;4962186;28;20195;-65
2023/06/21 10:17:17;;;;;;;12.97;11.30;;;22.10;99.90;;;;;;4958012;28;20676;-66
2023/06/21 10:19:44;;;;;;;13.23;11.85;;;22.00;99.90;;;;;;4959712;28;20565;-68
2023/06/21 10:22:18;;;;;;;15.40;11.00;;;21.90;99.90;;;;;;4958692;28;20211;-69
2023/06/21 10:24:49;;;;;;;16.30;12.50;;;21.40;99.90;;;;;;4963129;28;20951;-76
2023/06/21 10:27:16;;;;;;;13.53;12.23;;;21.80;99.90;;;;;;4958713;28;20203;-70
2023/06/21 10:29:50;;;;;;;13.68;12.27;;;21.60;99.90;;;;;;4963307;28;20457;-74
2023/06/21 10:32:16;;;;;;;12.13;10.93;;;21.60;99.90;;;;;;4976942;28;20204;-67
2023/06/21 10:35:02;;;;;;;14.13;12.13;;;21.80;99.90;;;;;;4957648;28;20189;-66
2023/06/21 10:37:48;;;;;;;13.67;12.27;;;21.80;99.90;;;;;;4963000;28;20220;-67
2023/06/21 10:40:15;;;;;;;12.67;11.47;;;22.00;99.90;;;;;;4962848;28;20458;-68
2023/06/21 10:42:42;;;;;;;13.13;11.80;;;22.20;99.90;;;;;;4960160;28;20463;-69
2023/06/21 10:45:12;;;;;;;15.93;12.60;;;22.30;99.90;;;;;;4960849;28;20813;-67
2023/06/21 10:47:39;;;;;;;12.57;11.40;;;22.50;99.90;;;;;;4959603;28;20829;-69
2023/06/21 10:50:09;;;;;;;13.90;12.60;;;22.70;99.90;;;;;;4961422;28;20448;-69
2023/06/21 10:52:35;;;;;;;12.77;11.67;;;22.90;99.90;;;;;;4960561;28;20471;-68
2023/06/21 10:55:02;;;;;;;12.77;11.30;;;23.00;99.90;;;;;;4960080;28;20495;-68
2023/06/21 10:57:30;;;;;;;13.73;12.07;;;23.20;99.90;;;;;;4961449;28;20565;-69
2023/06/21 11:00:07;;;;;;;15.13;11.80;;;23.40;99.90;;;;;;4962588;28;20488;-71
2023/06/21 11:02:33;;;;;;;14.63;13.20;;;23.70;99.90;;;;;;4960984;28;20558;-68
2023/06/21 11:05:11;;;;;;;10.93;9.80;;;24.00;99.90;;;;;;4959413;28;20466;-69
2023/06/21 11:07:38;;;;;;;9.87;9.00;;;24.20;99.90;;;;;;4959220;28;21042;-68
2023/06/21 11:10:07;;;;;;;9.57;8.70;;;24.40;99.90;;;;;;4963332;28;20483;-69
2023/06/21 11:12:36;;;;;;;10.53;9.43;;;24.50;99.90;;;;;;4962825;28;20471;-70
2023/06/21 11:15:05;;;;;;;11.17;10.00;;;24.60;99.90;;;;;;4955957;28;20444;-69
2023/06/21 11:17:34;;;;;;;9.37;8.47;;;24.80;99.90;;;;;;4960218;28;20461;-69
2023/06/21 11:20:19;;;;;;;9.00;8.17;;;24.60;99.90;;;;;;4960626;28;20957;-69
2023/06/21 11:22:55;;;;;;;10.50;9.40;;;24.70;99.90;;;;;;4961470;28;20476;-72
2023/06/21 11:25:21;;;;;;;8.93;8.03;;;24.90;99.90;;;;;;4958802;28;20974;-70
2023/06/21 11:28:19;;;;;;;11.40;10.50;;;25.30;99.90;;;;;;4960085;28;20461;-69
2023/06/21 11:31:03;;;;;;;10.77;9.87;;;25.80;99.90;;;;;;4958898;28;20187;-69
2023/06/21 11:33:31;;;;;;;9.03;8.27;;;26.50;99.90;;;;;;4961636;28;20443;-70
2023/06/21 11:36:03;;;;;;;10.20;9.30;;;26.90;99.90;;;;;;4960925;28;20456;-69
2023/06/21 11:38:30;;;;;;;10.83;9.83;;;27.40;99.90;;;;;;4961456;28;20472;-69
2023/06/21 11:40:59;;;;;;;11.70;10.70;;;27.90;99.90;;;;;;4964515;28;20493;-70
2023/06/21 11:43:26;;;;;;;12.40;9.63;;;28.60;99.90;;;;;;4962692;28;20484;-67
2023/06/21 11:46:02;;;;;;;10.50;9.47;;;29.00;99.10;;;;;;4966841;28;20522;-67
2023/06/21 11:48:31;;;;;;;9.40;8.50;;;29.10;98.30;;;;;;4961620;28;21913;-66
2023/06/21 11:51:08;;;;;;;10.63;9.50;;;29.30;95.90;;;;;;4961577;28;20474;-69
2023/06/21 11:53:42;;;;;;;10.70;8.67;;;29.40;96.20;;;;;;4963075;28;20457;-70
2023/06/21 11:56:16;;;;;;;9.20;8.47;;;29.50;94.70;;;;;;4962687;28;20470;-69
2023/06/21 11:58:42;;;;;;;10.67;9.67;;;29.20;95.30;;;;;;4966630;28;20472;-75
2023/06/21 12:01:07;;;;;;;10.67;9.73;;;28.80;95.70;;;;;;4964716;28;20607;-68
2023/06/21 12:03:33;;;;;;;10.00;8.57;;;28.30;96.40;;;;;;4964754;28;20272;-74
2023/06/21 12:06:01;;;;;;;10.70;9.80;;;28.00;97.40;;;;;;4964780;28;20241;-69
2023/06/21 12:08:30;;;;;;;10.30;9.27;;;27.60;97.70;;;;;;4962699;28;21986;-69
2023/06/21 12:11:07;;;;;;;9.93;9.03;;;27.60;98.10;;;;;;4959728;28;20469;-69
2023/06/21 12:13:35;;;;;;;11.10;10.00;;;27.60;98.20;;;;;;4963868;28;20433;-68
2023/06/21 12:16:03;;;;;;;9.70;8.80;;;27.10;98.30;;;;;;4955664;28;21117;-72
2023/06/21 12:18:30;;;;;;;9.83;9.03;;;27.50;98.00;;;;;;4958054;28;20471;-69
2023/06/21 12:20:58;;;;;;;9.80;9.10;;;27.50;98.00;;;;;;4967512;28;20484;-70
2023/06/21 12:23:24;;;;;;;8.63;7.90;;;27.40;97.50;;;;;;4962676;28;20444;-69
2023/06/21 12:25:55;;;;;;;7.40;6.30;;;27.40;98.10;;;;;;4960439;28;20458;-68
2023/06/21 12:28:23;;;;;;;7.70;7.07;;;27.30;96.00;;;;;;4964208;28;20450;-68
2023/06/21 12:30:55;;;;;;;7.70;7.10;;;27.40;95.60;;;;;;4961942;28;20987;-73
2023/06/21 12:33:40;;;;;;;8.17;7.37;;;27.40;96.00;;;;;;4965201;28;20509;-68
2023/06/21 12:36:23;;;;;;;7.97;7.27;;;27.20;96.00;;;;;;4958319;28;20462;-69
2023/06/21 12:38:56;;;;;;;7.37;6.77;;;27.10;96.30;;;;;;4961250;28;20476;-69